Finley, Washington
Current Conditions -  °F | °C
As of 7:53 AM on Monday 22 Dec 2014 (Local Time) from KPSC Reporting Station
Clear Clear  
Wind Chill: 31°   Ceiling: Unl
Heat Index: 38°   Visibility: 10mi
Dew Point: 36°   Wind: 10mph
Humidity: 93%   Direction: 230°SW
Pressure: 30.2"   Gusts: NA
Location:  46.2117°N, 119.173°W
Report Text: KPSC 221553Z 23009KT 10SM CLR 03/02 A3020 RMK AO2 SLP229 T00330022
Loading
Personal Weather Stations






























Interactive Weather Map New forecast layout! Learn more

10-Day Weather Forecast

Advertisements
Track Severe Weather on mobile